createdAt,value
2022-08-14T00:02:03.661Z,65.26
2022-08-14T00:04:41.959Z,66.65
2022-08-14T00:07:14.114Z,67.29
2022-08-14T00:10:01.895Z,67.36
2022-08-14T00:12:37.770Z,67.68
2022-08-14T00:15:15.354Z,67.83
2022-08-14T00:17:47.269Z,67.63
2022-08-14T00:20:24.165Z,68.09
2022-08-14T00:23:14.677Z,68.54
2022-08-14T00:25:53.752Z,67.07
2022-08-14T00:28:32.497Z,65.90
2022-08-14T00:31:02.604Z,63.90
2022-08-14T00:33:52.496Z,66.13
2022-08-14T00:36:37.695Z,63.80
2022-08-14T00:39:06.469Z,64.61
2022-08-14T00:41:36.877Z,63.86
2022-08-14T00:44:07.446Z,64.33
2022-08-14T00:46:36.991Z,64.38
2022-08-14T00:49:05.740Z,65.31
2022-08-14T00:51:34.826Z,64.98
2022-08-14T00:54:16.854Z,64.81
2022-08-14T00:56:54.802Z,64.85
2022-08-14T00:59:27.523Z,65.39
2022-08-14T01:01:58.487Z,67.47
2022-08-14T01:04:50.963Z,68.10
2022-08-14T01:07:20.624Z,68.93
2022-08-14T01:09:52.766Z,66.74
2022-08-14T01:12:26.913Z,68.57
2022-08-14T01:14:58.758Z,68.66
2022-08-14T01:17:49.589Z,68.72
2022-08-14T01:20:53.336Z,69.15
2022-08-14T01:23:21.699Z,68.43
2022-08-14T01:25:51.027Z,67.55
2022-08-14T01:28:46.314Z,70.02
2022-08-14T01:31:12.226Z,69.89
2022-08-14T01:33:59.636Z,67.74
2022-08-14T01:36:36.597Z,68.98
2022-08-14T01:39:13.318Z,68.81
2022-08-14T01:41:43.229Z,69.03
2022-08-14T01:44:33.234Z,69.47
2022-08-14T01:47:01.997Z,69.81
2022-08-14T01:49:35.261Z,69.16
2022-08-14T01:52:09.051Z,68.74
2022-08-14T01:54:58.165Z,68.07
2022-08-14T01:57:26.407Z,67.25
2022-08-14T02:00:18.758Z,68.59
2022-08-14T02:02:46.879Z,69.22
2022-08-14T02:05:21.337Z,68.59
2022-08-14T02:07:55.879Z,68.35
2022-08-14T02:10:46.288Z,69.30
2022-08-14T02:13:16.675Z,69.54
2022-08-14T02:15:45.734Z,69.39
2022-08-14T02:18:16.372Z,69.56
2022-08-14T02:20:48.302Z,67.36
2022-08-14T02:23:29.129Z,67.85
2022-08-14T02:26:24.017Z,65.40
2022-08-14T02:28:57.941Z,64.53
2022-08-14T02:31:42.516Z,65.83
2022-08-14T02:34:26.345Z,66.10
2022-08-14T02:37:03.924Z,66.25
2022-08-14T02:39:34.658Z,65.71
2022-08-14T02:42:04.436Z,66.85
2022-08-14T02:44:39.550Z,67.15
2022-08-14T02:47:14.741Z,66.67
2022-08-14T02:49:42.915Z,68.00
2022-08-14T02:52:56.049Z,68.43
2022-08-14T02:55:00.804Z,67.11
2022-08-14T02:57:39.958Z,67.59
2022-08-14T03:00:10.117Z,67.94
2022-08-14T03:02:56.444Z,67.93
2022-08-14T03:05:29.331Z,67.05
2022-08-14T03:08:04.751Z,66.91
2022-08-14T03:10:36.990Z,67.59
2022-08-14T03:13:13.805Z,68.04
2022-08-14T03:15:51.026Z,68.63
2022-08-14T03:18:31.960Z,69.48
2022-08-14T03:21:01.437Z,69.77
2022-08-14T03:23:34.071Z,69.78
2022-08-14T03:26:07.213Z,69.86
2022-08-14T03:28:36.612Z,69.78
2022-08-14T03:31:08.346Z,68.51
2022-08-14T03:33:41.295Z,68.57
2022-08-14T03:37:39.038Z,68.96
2022-08-14T03:39:11.592Z,68.95
2022-08-14T03:41:43.869Z,69.36
2022-08-14T03:45:19.078Z,68.83
2022-08-14T03:46:59.689Z,68.89
2022-08-14T03:49:30.801Z,69.30
2022-08-14T03:52:01.329Z,69.59
2022-08-14T03:54:30.396Z,69.75
2022-08-14T03:57:03.008Z,69.57
2022-08-14T03:59:31.806Z,69.70
2022-08-14T04:02:01.700Z,69.72
2022-08-14T04:04:30.769Z,69.73
2022-08-14T04:06:59.871Z,69.85
2022-08-14T04:09:27.798Z,69.87
2022-08-14T04:11:56.288Z,69.68
2022-08-14T04:14:25.896Z,69.64
2022-08-14T04:16:53.539Z,69.64
2022-08-14T04:19:23.982Z,69.54
2022-08-14T04:22:02.415Z,69.56
2022-08-14T04:24:38.449Z,69.56
2022-08-14T04:27:09.575Z,69.54
2022-08-14T04:29:42.810Z,69.58
2022-08-14T04:32:58.211Z,69.45
2022-08-14T04:35:00.951Z,69.34
2022-08-14T04:37:47.219Z,68.46
2022-08-14T04:40:40.762Z,68.51
2022-08-14T04:43:32.452Z,68.77
2022-08-14T04:46:08.506Z,68.78
2022-08-14T04:48:43.277Z,68.95
2022-08-14T04:51:12.395Z,68.96
2022-08-14T04:53:43.917Z,69.04
2022-08-14T04:56:31.227Z,68.67
2022-08-14T04:59:02.302Z,68.77
2022-08-14T05:01:39.995Z,68.80
2022-08-14T05:04:08.764Z,68.71
2022-08-14T05:06:44.094Z,68.74
2022-08-14T05:09:14.324Z,67.62
2022-08-14T05:11:42.549Z,67.40
2022-08-14T05:14:17.326Z,67.64
2022-08-14T05:17:01.828Z,68.36
2022-08-14T05:19:32.555Z,68.76
2022-08-14T05:22:17.265Z,68.87
2022-08-14T05:24:50.368Z,68.82
2022-08-14T05:27:23.153Z,68.82
2022-08-14T05:29:53.278Z,68.90
2022-08-14T05:32:21.567Z,67.88
2022-08-14T05:34:50.502Z,67.95
2022-08-14T05:37:19.079Z,67.30
2022-08-14T05:39:46.980Z,67.77
2022-08-14T05:42:22.014Z,67.64
2022-08-14T05:44:57.499Z,66.68
2022-08-14T05:47:28.549Z,66.46
2022-08-14T05:50:02.271Z,66.40
2022-08-14T05:52:39.335Z,65.55
2022-08-14T05:55:08.299Z,66.35
2022-08-14T05:57:49.035Z,65.92
2022-08-14T06:00:25.026Z,65.86
2022-08-14T06:03:00.009Z,65.18
2022-08-14T06:05:28.823Z,66.16
2022-08-14T06:07:58.043Z,66.40
2022-08-14T06:10:28.334Z,66.23
2022-08-14T06:12:58.053Z,65.51
2022-08-14T06:15:30.025Z,65.10
2022-08-14T06:18:00.103Z,65.16
2022-08-14T06:20:30.029Z,65.40
2022-08-14T06:22:59.089Z,65.63
2022-08-14T06:25:26.914Z,65.55
2022-08-14T06:27:55.937Z,64.89
2022-08-14T06:30:30.376Z,64.25
2022-08-14T06:33:13.714Z,63.92
2022-08-14T06:35:43.527Z,63.82
2022-08-14T06:38:17.385Z,63.54
2022-08-14T06:40:45.964Z,63.21
2022-08-14T06:43:15.195Z,63.27
2022-08-14T06:45:43.718Z,62.48
2022-08-14T06:48:18.961Z,63.32
2022-08-14T06:50:49.769Z,63.45
2022-08-14T06:53:19.903Z,63.28
2022-08-14T06:55:58.111Z,63.02
2022-08-14T06:58:30.928Z,62.75
2022-08-14T07:01:24.943Z,62.38
2022-08-14T07:04:23.908Z,61.95
2022-08-14T07:06:55.530Z,61.83
2022-08-14T07:09:28.326Z,61.24
2022-08-14T07:12:56.095Z,60.68
2022-08-14T07:15:01.587Z,60.74
2022-08-14T07:17:29.271Z,59.20
2022-08-14T07:19:59.807Z,61.44
2022-08-14T07:22:32.880Z,63.51
2022-08-14T07:25:15.098Z,63.14
2022-08-14T07:27:42.827Z,62.22
2022-08-14T07:30:33.835Z,61.95
2022-08-14T07:32:58.978Z,61.55
2022-08-14T07:35:37.252Z,61.16
2022-08-14T07:38:16.610Z,60.70
2022-08-14T07:40:45.314Z,60.72
2022-08-14T07:43:14.848Z,60.18
2022-08-14T07:45:43.188Z,59.87
2022-08-14T07:48:14.956Z,60.53
2022-08-14T07:50:45.464Z,61.68
2022-08-14T07:53:14.262Z,62.34
2022-08-14T07:55:42.902Z,62.41
2022-08-14T07:58:21.289Z,62.05
2022-08-14T08:00:58.749Z,61.49
2022-08-14T08:03:28.245Z,61.74
2022-08-14T08:05:58.108Z,62.32
2022-08-14T08:08:27.722Z,62.47
2022-08-14T08:11:02.979Z,62.44
2022-08-14T08:13:31.610Z,62.14
2022-08-14T08:16:03.251Z,62.21
2022-08-14T08:18:31.345Z,62.37
2022-08-14T08:21:00.261Z,62.59
2022-08-14T08:23:32.615Z,62.73
2022-08-14T08:26:08.582Z,62.84
2022-08-14T08:28:36.198Z,63.13
2022-08-14T08:31:05.253Z,63.53
2022-08-14T08:33:37.161Z,63.41
2022-08-14T08:36:06.525Z,63.17
2022-08-14T08:39:15.556Z,62.81
2022-08-14T08:41:24.483Z,63.00
2022-08-14T08:43:54.014Z,62.93
2022-08-14T08:46:24.340Z,62.09
2022-08-14T08:51:33.257Z,61.31
2022-08-14T08:54:15.389Z,61.06
2022-08-14T08:56:49.031Z,61.42
2022-08-14T08:59:17.839Z,60.97
2022-08-14T09:01:52.344Z,60.79
2022-08-14T09:04:25.325Z,60.74
2022-08-14T09:07:00.097Z,60.66
2022-08-14T09:09:54.088Z,60.72
2022-08-14T09:12:32.233Z,60.26
2022-08-14T09:15:01.872Z,60.15
2022-08-14T09:17:29.537Z,60.25
2022-08-14T09:19:57.085Z,60.57
2022-08-14T09:22:36.069Z,60.86
2022-08-14T09:25:16.867Z,61.17
2022-08-14T09:27:44.571Z,60.56
2022-08-14T09:30:33.197Z,60.14
2022-08-14T09:33:10.975Z,59.44
2022-08-14T09:35:56.580Z,61.50
2022-08-14T09:38:27.618Z,61.81
2022-08-14T09:41:14.035Z,62.20
2022-08-14T09:43:45.880Z,61.15
2022-08-14T09:46:17.102Z,60.17
2022-08-14T09:48:57.855Z,59.43
2022-08-14T09:51:26.088Z,59.76
2022-08-14T09:54:19.239Z,59.06
2022-08-14T09:56:56.896Z,59.23
2022-08-14T09:59:27.865Z,60.47
2022-08-14T10:01:57.403Z,62.22
2022-08-14T10:04:36.016Z,62.24
2022-08-14T10:07:06.009Z,51.59
2022-08-14T10:09:57.523Z,50.12
2022-08-14T10:12:44.879Z,47.48
2022-08-14T10:15:16.760Z,52.27
2022-08-14T10:17:44.329Z,50.29
2022-08-14T10:20:39.999Z,48.39
2022-08-14T10:23:23.033Z,43.46
2022-08-14T10:25:57.725Z,43.72
2022-08-14T10:28:39.065Z,42.68
2022-08-14T10:31:16.564Z,38.70
2022-08-14T10:34:00.416Z,38.54
2022-08-14T10:36:34.751Z,38.26
2022-08-14T10:39:09.516Z,40.00
2022-08-14T10:41:41.722Z,41.77
2022-08-14T10:44:21.666Z,43.85
2022-08-14T10:47:40.378Z,44.19
2022-08-14T10:49:53.221Z,45.45
2022-08-14T10:52:24.293Z,43.61
2022-08-14T10:54:56.402Z,41.03
2022-08-14T10:57:25.417Z,38.28
2022-08-14T10:59:56.174Z,39.91
2022-08-14T11:02:50.214Z,40.26
2022-08-14T11:05:24.946Z,41.07
2022-08-14T11:07:56.364Z,41.72
2022-08-14T11:10:40.856Z,42.41
2022-08-14T11:13:15.526Z,43.89
2022-08-14T11:15:43.201Z,44.99
2022-08-14T11:18:12.112Z,45.32
2022-08-14T11:20:50.901Z,44.38
2022-08-14T11:23:22.857Z,44.52
2022-08-14T11:25:53.462Z,44.17
2022-08-14T11:28:48.004Z,44.59
2022-08-14T11:31:11.144Z,44.46
2022-08-14T11:33:39.522Z,44.88
2022-08-14T11:36:17.829Z,45.21
2022-08-14T11:38:46.677Z,45.32
2022-08-14T11:41:17.059Z,45.89
2022-08-14T11:43:55.853Z,46.04
2022-08-14T11:46:30.371Z,46.37
2022-08-14T11:49:06.350Z,45.80
2022-08-14T11:51:36.150Z,45.51
2022-08-14T11:54:33.724Z,45.97
2022-08-14T11:57:04.491Z,46.05
2022-08-14T11:59:35.404Z,46.54
2022-08-14T12:02:38.975Z,47.02
2022-08-14T12:05:00.405Z,47.36
2022-08-14T12:07:32.078Z,47.12
2022-08-14T12:09:59.994Z,47.86
2022-08-14T12:12:34.930Z,49.02
2022-08-14T12:15:05.419Z,48.94
2022-08-14T12:17:47.676Z,48.91
2022-08-14T12:20:30.261Z,48.67
2022-08-14T12:23:00.996Z,49.18
2022-08-14T12:25:29.002Z,49.86
2022-08-14T12:27:59.079Z,50.30
2022-08-14T12:30:27.450Z,49.67
2022-08-14T12:33:03.477Z,50.08
2022-08-14T12:35:39.667Z,50.83
2022-08-14T12:38:07.464Z,50.80
2022-08-14T12:40:35.273Z,51.46
2022-08-14T12:43:08.953Z,51.58
2022-08-14T12:45:49.484Z,53.04
2022-08-14T12:48:21.717Z,53.91
2022-08-14T12:50:59.363Z,54.63
2022-08-14T12:53:36.242Z,53.58
2022-08-14T12:56:21.884Z,54.13
2022-08-14T12:58:56.492Z,54.86
2022-08-14T13:01:28.554Z,54.81
2022-08-14T13:04:10.465Z,54.53
2022-08-14T13:06:44.733Z,54.64
2022-08-14T13:09:19.334Z,55.01
2022-08-14T13:11:49.480Z,54.88
2022-08-14T13:14:29.887Z,55.09
2022-08-14T13:16:58.503Z,55.64
2022-08-14T13:19:28.246Z,55.70
2022-08-14T13:22:05.785Z,55.88
2022-08-14T13:24:38.344Z,56.11
2022-08-14T13:27:10.008Z,56.38
2022-08-14T13:29:46.533Z,56.35
2022-08-14T13:32:15.194Z,56.44
2022-08-14T13:34:48.809Z,56.73
2022-08-14T13:37:17.277Z,57.13
2022-08-14T13:39:57.090Z,57.49
2022-08-14T13:42:30.261Z,57.35
2022-08-14T13:45:02.328Z,58.35
2022-08-14T13:47:30.850Z,58.09
2022-08-14T13:50:00.442Z,58.47
2022-08-14T13:52:51.987Z,58.10
2022-08-14T13:55:18.441Z,58.17
2022-08-14T13:57:59.472Z,58.39
2022-08-14T14:00:53.189Z,58.53
2022-08-14T14:03:24.038Z,58.85
2022-08-14T14:05:54.884Z,58.55
2022-08-14T14:08:43.315Z,58.44
2022-08-14T14:11:11.307Z,58.29
2022-08-14T14:13:44.747Z,58.24
2022-08-14T14:16:15.595Z,58.58
2022-08-14T14:18:56.175Z,58.29
2022-08-14T14:21:28.715Z,58.56
2022-08-14T14:23:56.977Z,58.57
2022-08-14T14:26:25.043Z,58.67
2022-08-14T14:28:55.342Z,58.51
2022-08-14T14:31:30.088Z,57.95
2022-08-14T14:34:00.435Z,58.42
2022-08-14T14:36:29.495Z,58.61
2022-08-14T14:38:58.212Z,58.78
2022-08-14T14:41:37.881Z,59.12
2022-08-14T14:44:16.505Z,58.20
2022-08-14T14:46:51.005Z,58.49
2022-08-14T14:49:21.833Z,58.31
2022-08-14T14:51:51.630Z,59.14
2022-08-14T14:54:31.871Z,59.16
2022-08-14T14:57:02.542Z,58.71
2022-08-14T14:59:35.952Z,59.04
2022-08-14T15:02:07.855Z,59.33
2022-08-14T15:04:37.893Z,59.20
2022-08-14T15:07:06.496Z,59.32
2022-08-14T15:09:34.582Z,59.27
2022-08-14T15:12:05.545Z,59.61
2022-08-14T15:14:55.896Z,59.61
2022-08-14T15:17:28.655Z,59.07
2022-08-14T15:20:07.361Z,58.53
2022-08-14T15:22:36.915Z,57.94
2022-08-14T15:25:05.261Z,57.57
2022-08-14T15:27:34.836Z,57.68
2022-08-14T15:30:02.412Z,57.71
2022-08-14T15:32:30.300Z,57.77
2022-08-14T15:35:00.829Z,57.92
2022-08-14T15:37:32.660Z,58.47
2022-08-14T15:40:02.344Z,58.17
2022-08-14T15:42:38.120Z,58.64
2022-08-14T15:45:10.046Z,59.06
2022-08-14T15:47:41.633Z,59.91
2022-08-14T15:50:12.743Z,60.82
2022-08-14T15:52:44.878Z,59.94
2022-08-14T15:55:14.509Z,59.71
2022-08-14T15:58:02.428Z,59.50
2022-08-14T16:00:53.559Z,59.68
2022-08-14T16:03:27.582Z,60.28
2022-08-14T16:06:10.965Z,60.66
2022-08-14T16:08:43.916Z,60.59
2022-08-14T16:11:11.901Z,60.69
2022-08-14T16:13:44.398Z,61.12
2022-08-14T16:16:47.545Z,61.58
2022-08-14T16:18:59.578Z,61.74
2022-08-14T16:21:31.571Z,61.62
2022-08-14T16:23:59.985Z,61.49
2022-08-14T16:26:30.095Z,61.62
2022-08-14T16:29:15.572Z,62.87
2022-08-14T16:31:44.857Z,65.20
2022-08-14T16:34:45.014Z,61.51
2022-08-14T16:37:03.167Z,59.68
2022-08-14T16:39:30.907Z,60.08
2022-08-14T16:42:00.582Z,60.49
2022-08-14T16:44:41.680Z,61.37
2022-08-14T16:47:17.466Z,60.61
2022-08-14T16:50:04.311Z,61.06
2022-08-14T16:52:44.124Z,62.77
2022-08-14T16:55:13.788Z,63.59
2022-08-14T16:57:52.002Z,62.33
2022-08-14T17:00:43.493Z,58.90
2022-08-14T17:03:12.386Z,58.81
2022-08-14T17:05:42.946Z,58.73
2022-08-14T17:08:33.052Z,58.78
2022-08-14T17:11:01.716Z,58.89
2022-08-14T17:14:00.027Z,59.28
2022-08-14T17:16:26.006Z,59.87
2022-08-14T17:19:00.782Z,60.17
2022-08-14T17:21:32.668Z,60.44
2022-08-14T17:24:56.043Z,61.07
2022-08-14T17:26:55.201Z,61.67
2022-08-14T17:29:29.447Z,61.81
2022-08-14T17:32:29.257Z,62.25
2022-08-14T17:35:10.076Z,66.76
2022-08-14T17:37:44.890Z,67.27
2022-08-14T17:40:15.934Z,67.13
2022-08-14T17:42:53.347Z,66.85
2022-08-14T17:45:28.144Z,65.22
2022-08-14T17:47:59.062Z,59.53
2022-08-14T17:50:55.121Z,58.11
2022-08-14T17:53:30.515Z,58.38
2022-08-14T17:56:00.935Z,58.77
2022-08-14T17:58:38.549Z,59.27
2022-08-14T18:01:12.682Z,59.77
2022-08-14T18:03:50.195Z,60.54
2022-08-14T18:06:38.709Z,61.23
2022-08-14T18:09:25.234Z,61.01
2022-08-14T18:11:55.501Z,61.11
2022-08-14T18:14:32.204Z,61.53
2022-08-14T18:17:11.725Z,64.59
2022-08-14T18:19:41.620Z,68.44
2022-08-14T18:22:23.872Z,69.22
2022-08-14T18:24:57.353Z,67.64
2022-08-14T18:27:36.382Z,66.35
2022-08-14T18:30:33.119Z,64.92
2022-08-14T18:32:55.343Z,61.84
2022-08-14T18:35:46.370Z,61.06
2022-08-14T18:38:25.963Z,63.17
2022-08-14T18:40:54.905Z,65.59
2022-08-14T18:43:43.082Z,65.89
2022-08-14T18:46:59.563Z,65.51
2022-08-14T18:49:13.244Z,67.02
2022-08-14T18:51:45.237Z,66.21
2022-08-14T18:54:27.015Z,65.92
2022-08-14T18:57:01.414Z,66.22
2022-08-14T18:59:35.723Z,65.88
2022-08-14T19:02:22.402Z,65.92
2022-08-14T19:05:02.794Z,66.27
2022-08-14T19:07:33.217Z,66.26
2022-08-14T19:10:03.464Z,65.72
2022-08-14T19:12:50.114Z,65.98
2022-08-14T19:15:19.897Z,64.13
2022-08-14T19:18:14.366Z,61.46
2022-08-14T19:20:52.880Z,61.57
2022-08-14T19:23:23.117Z,63.21
2022-08-14T19:26:36.255Z,63.46
2022-08-14T19:29:19.969Z,60.07
2022-08-14T19:31:55.237Z,62.55
2022-08-14T19:34:35.352Z,64.22
2022-08-14T19:37:05.942Z,64.40
2022-08-14T19:39:47.513Z,64.41
2022-08-14T19:42:46.739Z,64.85
2022-08-14T19:45:14.894Z,62.41
2022-08-14T19:47:42.794Z,59.29
2022-08-14T19:50:31.133Z,59.58
2022-08-14T19:53:11.416Z,59.73
2022-08-14T19:55:45.849Z,60.43
2022-08-14T19:58:13.703Z,61.49
2022-08-14T20:00:52.305Z,64.70
2022-08-14T20:03:24.234Z,65.80
2022-08-14T20:06:05.571Z,68.02
2022-08-14T20:11:01.102Z,70.59
2022-08-14T20:12:00.590Z,71.26
2022-08-14T20:14:29.487Z,71.14
2022-08-14T20:17:05.614Z,70.86
2022-08-14T20:19:37.861Z,64.04
2022-08-14T20:22:36.386Z,64.13
2022-08-14T20:25:10.400Z,63.36
2022-08-14T20:27:40.052Z,63.82
2022-08-14T20:30:29.776Z,65.70
2022-08-14T20:32:56.769Z,67.43
2022-08-14T20:35:36.300Z,68.27
2022-08-14T20:38:30.538Z,68.67
2022-08-14T20:40:53.601Z,68.86
2022-08-14T20:43:48.288Z,68.87
2022-08-14T20:46:29.456Z,66.83
2022-08-14T20:49:08.737Z,66.65
2022-08-14T20:51:47.440Z,65.70
2022-08-14T20:54:33.543Z,67.16
2022-08-14T20:57:09.293Z,66.21
2022-08-14T20:59:43.458Z,67.47
2022-08-14T21:02:38.850Z,68.15
2022-08-14T21:05:19.538Z,68.82
2022-08-14T21:07:51.287Z,68.80
2022-08-14T21:10:33.782Z,68.53
2022-08-14T21:13:11.902Z,68.13
2022-08-14T21:15:56.672Z,67.89
2022-08-14T21:18:28.853Z,68.21
2022-08-14T21:20:57.790Z,66.72
2022-08-14T21:23:27.301Z,65.02
2022-08-14T21:26:00.292Z,66.51
2022-08-14T21:28:30.172Z,67.52
2022-08-14T21:31:03.179Z,67.99
2022-08-14T21:33:30.899Z,68.21
2022-08-14T21:35:59.339Z,66.52
2022-08-14T21:38:38.097Z,62.90
2022-08-14T21:41:50.049Z,64.72
2022-08-14T21:44:17.717Z,66.13
2022-08-14T21:46:49.833Z,66.54
2022-08-14T21:49:38.318Z,65.58
2022-08-14T21:52:50.532Z,62.25
2022-08-14T21:54:59.481Z,62.52
2022-08-14T21:58:45.972Z,62.84
2022-08-14T22:00:36.061Z,65.14
2022-08-14T22:03:05.830Z,66.66
2022-08-14T22:05:33.655Z,67.81
2022-08-14T22:08:21.595Z,67.78
2022-08-14T22:10:54.681Z,67.31
2022-08-14T22:13:24.697Z,67.20
2022-08-14T22:15:58.200Z,67.16
2022-08-14T22:18:30.024Z,67.36
2022-08-14T22:20:57.896Z,67.90
2022-08-14T22:23:26.025Z,68.36
2022-08-14T22:25:55.257Z,68.62
2022-08-14T22:28:25.405Z,68.49
2022-08-14T22:30:54.798Z,68.48
2022-08-14T22:33:31.097Z,68.54
2022-08-14T22:36:00.467Z,68.38
2022-08-14T22:38:37.879Z,69.09
2022-08-14T22:41:27.682Z,69.14
2022-08-14T22:43:56.133Z,69.09
2022-08-14T22:46:23.698Z,68.08
2022-08-14T22:48:51.861Z,68.55
2022-08-14T22:51:21.465Z,68.66
2022-08-14T22:53:52.378Z,68.02
2022-08-14T22:56:22.066Z,67.38
2022-08-14T22:58:53.872Z,64.82
2022-08-14T23:01:23.650Z,63.05
2022-08-14T23:03:51.866Z,63.28
2022-08-14T23:07:02.965Z,63.32
2022-08-14T23:09:36.490Z,64.00
2022-08-14T23:11:56.672Z,64.57
2022-08-14T23:14:29.516Z,65.08
2022-08-14T23:16:58.520Z,65.48
2022-08-14T23:19:33.565Z,65.97
2022-08-14T23:22:03.628Z,65.83
2022-08-14T23:24:31.392Z,66.85
2022-08-14T23:27:00.591Z,67.48
2022-08-14T23:29:31.393Z,67.87
2022-08-14T23:31:59.445Z,67.96
2022-08-14T23:34:29.605Z,68.43
2022-08-14T23:36:57.876Z,68.08
2022-08-14T23:39:29.731Z,66.98
2022-08-14T23:42:02.290Z,67.58
2022-08-14T23:44:35.278Z,68.50
2022-08-14T23:47:11.857Z,68.99
2022-08-14T23:49:56.908Z,68.94
2022-08-14T23:53:06.038Z,68.85
2022-08-14T23:55:17.754Z,69.24
2022-08-14T23:57:57.623Z,69.05
